Latest Weather Observations for Adelaide Airport

IDS60901

Issued at 8:51 pm CST Wednesday 5 August 2020 (issued every 10 minutes, with the page automatically refreshed every 10 minutes)

About weather observations | Map of Adelaide area stations | Latest observations for Adelaide area | Other Formats
Station Details ID: 023034 Name: ADELAIDE AIRPORT Lat: -34.95 Lon: 138.52 Height: 2.0 m
Data from the previous 72 hours. | See also: Recent months at Adelaide Airport
Date/Time
CST
Temp
°C
App
Temp
°C
Dew
Point
°C
Rel
Hum
%
Delta-T
°C
Wind Press
QNH
hPa
Press
MSL
hPa
Rain since
9am
mm
Dir  Spd
km/h
Gust
km/h
Spd
kts
Gust
kts
05/08:30pm 8.4 4.4 0.3 56 3.2 E 11 17 6 9 1020.1 1020.1 0.0
05/08:00pm 8.3 3.5 -0.1 55 3.3 ESE 15 20 8 11 1019.6 1019.6 0.0
05/07:30pm 8.6 4.2 -2.1 47 4.0 SE 11 15 6 8 1019.3 1019.3 0.0
05/07:00pm 8.2 4.0 -0.6 54 3.4 ESE 11 15 6 8 1019.3 1019.3 0.0
05/06:30pm 9.5 4.0 -2.1 44 4.4 ESE 17 22 9 12 1019.3 1019.3 0.0
05/06:00pm 9.2 3.7 -2.2 44 4.3 ESE 17 19 9 10 1019.0 1019.0 0.0
05/05:30pm 10.6 5.0 -3.0 38 5.1 E 17 20 9 11 1018.8 1018.8 0.0
05/05:00pm 12.0 6.7 -3.7 33 5.9 E 15 17 8 9 1018.7 1018.7 0.0
05/04:30pm 13.4 8.4 -4.0 29 6.6 ESE 13 19 7 10 1018.8 1018.8 0.0
05/04:00pm 13.8 8.8 -4.1 28 6.8 E 13 22 7 12 1018.9 1018.9 0.0
05/03:30pm 14.1 9.3 -2.7 31 6.6 ESE 13 22 7 12 1018.8 1018.8 0.0
05/03:00pm 14.3 9.5 -2.7 31 6.7 SE 13 19 7 10 1018.7 1018.7 0.0
05/02:30pm 14.0 8.6 -4.1 28 6.9 E 15 24 8 13 1018.7 1018.7 0.0
05/02:00pm 14.1 9.2 -3.1 30 6.7 E 13 20 7 11 1018.9 1018.9 0.0
05/01:30pm 13.7 8.5 -3.0 31 6.5 ENE 15 26 8 14 1019.5 1019.5 0.0
05/01:00pm 13.3 8.0 -3.8 30 6.5 NE 15 22 8 12 1019.9 1019.9 0.0
05/12:30pm 13.7 8.0 -3.5 30 6.6 ENE 17 39 9 21 1020.3 1020.3 0.0
05/12:00pm 13.0 7.3 -4.0 30 6.4 ENE 17 26 9 14 1020.8 1020.8 0.0
05/11:30am 12.7 6.6 -4.1 31 6.3 NE 19 30 10 16 1021.6 1021.6 0.0
05/11:00am 12.0 6.6 -4.2 32 6.0 E 15 24 8 13 1021.7 1021.7 0.0
05/10:30am 11.5 7.5 -1.9 39 5.2 E 9 17 5 9 1021.6 1021.6 0.0
05/10:00am 11.1 7.9 -0.4 45 4.6 E 6 7 3 4 1022.0 1022.0 0.0
05/09:30am 9.5 7.4 1.8 58 3.2 E 2 7 1 4 1021.9 1021.9 0.0
05/09:00am 7.9 4.4 1.5 64 2.6 SE 9 13 5 7 1022.0 1022.0 0.0
05/08:30am 5.0 1.9 1.4 77 1.4 E 7 9 4 5 1022.1 1022.1 0.0
05/08:00am 2.4 -1.2 0.5 87 0.7 E 9 13 5 7 1022.1 1022.1 0.0
05/07:30am 0.8 -3.0 -0.6 90 0.5 E 9 11 5 6 1021.9 1021.9 0.0
05/07:00am 1.0 -1.5 -1.0 86 0.7 NNE 2 9 1 5 1021.3 1021.3 0.0
05/06:30am 0.7 - - - - ENE 7 11 4 6 1020.9 1020.9 0.0
05/06:00am 0.7 -1.4 -1.0 88 0.6 CALM 0 9 0 5 1020.7 1020.7 0.0
05/05:30am 1.0 -2.2 -0.4 90 0.5 SSE 6 7 3 4 1020.6 1020.6 0.0
05/05:00am 1.4 -0.9 0.3 92 0.4 ENE 2 6 1 3 1020.5 1020.5 0.0
05/04:30am 1.0 -3.1 -0.1 92 0.4 ESE 11 15 6 8 1020.5 1020.5 0.0
05/04:00am 1.1 -1.6 0.0 92 0.4 E 4 13 2 7 1020.7 1020.7 0.0
05/03:30am 1.3 -0.7 0.2 92 0.4 CALM 0 0 0 0 1020.7 1020.7 0.0
05/03:00am 2.2 0.4 0.9 91 0.5 CALM 0 6 0 3 1020.5 1020.5 0.0
05/02:30am 3.0 1.3 1.7 91 0.5 CALM 0 6 0 3 1020.7 1020.7 0.0
05/02:00am 3.6 0.6 2.3 91 0.5 E 7 9 4 5 1021.0 1021.0 0.0
05/01:30am 3.0 -0.5 1.4 89 0.6 SE 9 11 5 6 1021.2 1021.2 0.0
05/01:00am 5.2 3.6 2.5 83 1.1 CALM 0 0 0 0 1021.1 1021.1 0.0
05/12:30am 3.3 1.5 1.2 86 0.8 CALM 0 0 0 0 1021.3 1021.3 0.0
05/12:00am 3.8 0.8 1.8 87 0.8 NE 7 7 4 4 1021.4 1021.4 0.0
 
Date/Time
CST
Temp
°C
App
Temp
°C
Dew
Point
°C
Rel
Hum
%
Delta-T
°C
Wind Press
QNH
hPa
Press
MSL
hPa
Rain since
9am
mm
Dir  Spd
km/h
Gust
km/h
Spd
kts
Gust
kts
04/11:30pm 4.2 1.4 2.2 87 0.8 SSE 6 7 3 4 1021.5 1021.5 0.0
04/11:00pm 4.2 0.9 2.2 87 0.8 ESE 9 11 5 6 1021.7 1021.7 0.0
04/10:30pm 5.0 2.1 2.5 84 1.0 E 7 7 4 4 1021.8 1021.8 0.0
04/10:00pm 4.4 1.0 1.9 84 1.0 SE 9 9 5 5 1021.8 1021.8 0.0
04/09:30pm 4.8 2.0 2.3 84 1.0 ESE 6 7 3 4 1021.8 1021.8 0.0
04/09:00pm 6.1 3.8 2.9 80 1.3 NE 4 9 2 5 1021.7 1021.7 0.0
04/08:30pm 6.4 4.5 3.0 79 1.4 SSE 2 6 1 3 1021.7 1021.7 0.0
04/08:00pm 6.7 3.4 2.3 73 1.8 SSE 9 9 5 5 1021.4 1021.4 0.0
04/07:30pm 7.1 3.3 1.9 69 2.1 SSE 11 15 6 8 1021.3 1021.3 0.0
04/07:00pm 7.8 4.4 1.9 66 2.4 SSE 9 13 5 7 1021.1 1021.1 0.0
04/06:30pm 8.2 3.9 1.3 62 2.8 SE 13 17 7 9 1020.9 1020.9 0.0
04/06:00pm 8.9 4.2 1.0 57 3.2 SE 15 17 8 9 1020.6 1020.6 0.0
04/05:30pm 10.7 5.5 0.0 47 4.3 SE 17 26 9 14 1020.4 1020.4 0.0
04/05:00pm 11.4 5.9 0.4 46 4.5 SE 19 28 10 15 1020.3 1020.3 0.0
04/04:30pm 12.0 5.7 -1.0 40 5.2 SSE 22 32 12 17 1020.2 1020.2 0.0
04/04:00pm 12.5 6.5 -1.3 38 5.5 SE 20 30 11 16 1020.0 1020.0 0.0
04/03:30pm 12.9 6.6 -1.0 38 5.6 SSE 22 30 12 16 1019.9 1019.9 0.0
04/03:00pm 13.1 6.8 -1.0 37 5.7 SSE 22 28 12 15 1019.7 1019.7 0.0
04/02:30pm 12.8 6.0 -1.5 37 5.7 SSE 24 33 13 18 1019.7 1019.7 0.0
04/02:00pm 13.4 7.3 -2.0 34 6.1 SSE 20 30 11 16 1019.7 1019.7 0.0
04/01:30pm 13.3 7.3 -1.8 35 6.0 SSE 20 30 11 16 1019.9 1019.9 0.0
04/01:00pm 13.7 7.4 -1.1 36 6.0 SE 22 33 12 18 1020.0 1020.0 0.0
04/12:30pm 13.1 6.8 -1.0 37 5.7 S 22 33 12 18 1020.3 1020.3 0.0
04/12:00pm 12.5 7.2 -0.6 40 5.3 SSE 17 26 9 14 1020.7 1020.7 0.0
04/11:30am 12.4 6.5 -1.1 39 5.4 SE 20 30 11 16 1021.1 1021.1 0.0
04/11:00am 12.5 5.8 -1.3 38 5.5 SE 24 35 13 19 1021.4 1021.4 0.0
04/10:30am 11.3 5.1 -0.1 45 4.6 SSE 22 32 12 17 1021.6 1021.6 0.0
04/10:00am 11.1 5.9 0.3 47 4.4 SSE 17 28 9 15 1021.5 1021.5 0.0
04/09:30am 10.7 5.5 0.4 49 4.2 SSE 17 24 9 13 1021.3 1021.3 0.0
04/09:00am 9.8 5.6 1.6 56 3.4 SSE 13 20 7 11 1021.1 1021.1 0.0
04/08:30am 8.7 5.0 2.2 63 2.7 SSE 11 13 6 7 1020.8 1020.8 0.0
04/08:00am 7.5 3.9 2.7 71 2.0 SSE 11 13 6 7 1020.5 1020.5 0.0
04/07:30am 6.7 2.7 2.6 75 1.7 SE 13 15 7 8 1020.0 1020.0 0.0
04/07:00am 8.1 3.8 3.1 71 2.1 SE 15 20 8 11 1019.5 1019.5 0.0
04/06:30am 8.2 4.4 4.0 75 1.8 SE 13 19 7 10 1019.1 1019.1 0.0
04/06:00am 8.0 4.4 5.1 82 1.3 SE 13 15 7 8 1018.9 1018.9 0.0
04/05:30am 7.9 5.6 5.7 86 1.0 S 7 11 4 6 1018.8 1018.8 0.0
04/05:00am 7.7 5.1 5.9 88 0.8 SSE 9 13 5 7 1018.7 1018.7 0.0
04/04:30am 7.8 5.1 5.8 87 0.9 SSE 9 11 5 6 1018.8 1018.8 0.0
04/04:00am 7.7 4.6 5.5 86 1.0 SSE 11 15 6 8 1018.7 1018.7 0.0
04/03:30am 6.4 3.7 3.5 82 1.2 SSE 7 9 4 5 1018.8 1018.8 0.0
04/03:00am 5.9 3.4 3.8 86 0.9 SSE 6 11 3 6 1018.7 1018.7 0.0
04/02:30am 5.7 4.3 3.5 86 0.9 CALM 0 0 0 0 1018.5 1018.5 0.0
04/02:00am 5.5 4.1 3.3 86 0.9 CALM 0 0 0 0 1018.5 1018.5 0.0
04/01:30am 6.7 3.9 3.4 79 1.4 SSE 7 9 4 5 1018.6 1018.6 0.0
04/01:00am 8.0 5.3 3.8 75 1.8 SSE 7 9 4 5 1018.7 1018.7 0.0
04/12:30am 8.5 5.0 3.3 70 2.2 SE 11 11 6 6 1018.9 1018.9 0.0
04/12:00am 8.9 4.6 3.0 66 2.5 S 15 20 8 11 1018.9 1018.9 0.0
 
Date/Time
CST
Temp
°C
App
Temp
°C
Dew
Point
°C
Rel
Hum
%
Delta-T
°C
Wind Press
QNH
hPa
Press
MSL
hPa
Rain since
9am
mm
Dir  Spd
km/h
Gust
km/h
Spd
kts
Gust
kts
03/11:30pm 9.4 5.2 3.9 68 2.4 S 15 19 8 10 1018.9 1018.9 0.0
03/11:00pm 8.1 5.2 4.7 79 1.5 S 9 13 5 7 1018.9 1018.9 0.0
03/10:30pm 8.8 6.0 5.2 78 1.6 S 9 11 5 6 1018.8 1018.8 0.0
03/10:00pm 10.5 6.7 5.7 72 2.2 S 15 22 8 12 1018.8 1018.8 0.0
03/09:30pm 11.2 7.9 6.3 72 2.3 S 13 17 7 9 1018.7 1018.7 0.0
03/09:00pm 11.1 7.9 6.9 75 2.0 S 13 17 7 9 1018.6 1018.6 0.0
03/08:30pm 10.4 7.2 7.0 79 1.6 S 13 15 7 8 1018.4 1018.4 0.0
03/08:00pm 11.0 8.3 7.5 79 1.7 S 11 15 6 8 1018.1 1018.1 0.0
03/07:30pm 11.3 7.9 7.8 79 1.7 S 15 19 8 10 1017.7 1017.7 0.0
03/07:00pm 11.1 7.9 8.4 83 1.3 SSW 15 19 8 10 1017.5 1017.5 0.0
03/06:30pm 11.6 8.1 8.8 83 1.4 SSW 17 20 9 11 1017.3 1017.3 0.0
03/06:00pm 11.9 8.4 8.7 81 1.6 SSW 17 22 9 12 1017.2 1017.2 0.0
03/05:30pm 12.3 7.9 9.1 81 1.6 SSW 22 30 12 16 1016.9 1016.9 0.0
03/05:00pm 12.8 8.5 7.7 71 2.5 SSW 20 30 11 16 1016.8 1016.8 0.0
03/04:30pm 13.2 8.4 7.5 68 2.8 SSW 22 28 12 15 1016.8 1016.8 0.0
03/04:00pm 13.2 8.6 6.7 64 3.1 SW 20 30 11 16 1016.6 1016.6 0.0
03/03:30pm 13.3 8.7 6.6 64 3.2 SW 20 26 11 14 1016.7 1016.7 0.0
03/03:00pm 13.6 8.3 6.7 63 3.3 SW 24 30 13 16 1016.8 1016.8 0.0
03/02:30pm 14.2 9.2 6.5 60 3.7 SW 22 30 12 16 1016.9 1016.9 0.0
03/02:00pm 14.4 9.6 7.3 62 3.5 SW 22 28 12 15 1017.1 1017.1 0.0
03/01:30pm 13.7 9.5 7.3 65 3.1 SW 19 24 10 13 1017.4 1017.4 0.0
03/01:00pm 14.4 10.6 7.7 64 3.3 SW 17 22 9 12 1017.7 1017.7 0.0
03/12:30pm 13.5 10.0 8.9 74 2.3 SW 17 24 9 13 1018.3 1018.3 0.0
03/12:00pm 13.8 10.5 9.5 75 2.2 WSW 17 22 9 12 1018.9 1018.9 0.0
03/11:30am 13.5 10.9 9.4 76 2.1 W 13 17 7 9 1019.0 1019.0 0.0
03/11:00am 13.3 10.8 9.6 78 1.9 W 13 17 7 9 1019.5 1019.5 0.0
03/10:30am 12.9 10.7 9.3 79 1.8 WNW 11 15 6 8 1019.9 1019.9 0.0
03/10:00am 12.1 10.3 9.3 83 1.4 WNW 9 13 5 7 1019.9 1019.9 0.0
03/09:30am 12.3 10.9 9.5 83 1.4 WNW 7 9 4 5 1020.0 1020.0 0.0
03/09:00am 11.5 11.3 8.9 84 1.3 CALM 0 6 0 3 1020.0 1020.0 0.0
03/08:30am 8.6 7.9 7.1 90 0.7 CALM 0 0 0 0 1020.2 1020.2 0.0
03/08:00am 7.1 4.9 6.0 93 0.5 NNE 7 9 4 5 1020.2 1020.2 0.0
03/07:30am 6.8 5.4 5.7 93 0.5 S 2 7 1 4 1020.2 1020.2 0.0
03/07:00am 6.1 3.3 5.2 94 0.4 ENE 9 9 5 5 1019.7 1019.7 0.0
03/06:30am 5.8 3.3 4.6 92 0.5 ENE 7 9 4 5 1019.6 1019.6 0.0
03/06:00am 6.2 5.1 5.3 94 0.4 CALM 0 0 0 0 1019.6 1019.6 0.0
03/05:30am 6.7 5.7 5.6 93 0.5 CALM 0 0 0 0 1019.3 1019.3 0.0
03/05:00am 6.7 5.7 5.8 94 0.4 CALM 0 0 0 0 1019.5 1019.5 0.0
03/04:30am 6.7 4.6 5.8 94 0.4 E 6 7 3 4 1019.3 1019.3 0.0
03/04:00am 6.6 4.4 5.5 93 0.5 ENE 6 7 3 4 1019.4 1019.4 0.0
03/03:30am 6.4 3.6 5.0 91 0.6 ENE 9 9 5 5 1019.6 1019.6 0.0
03/03:00am 8.4 7.7 6.9 90 0.7 CALM 0 0 0 0 1019.7 1019.7 0.0
03/02:30am 8.0 7.2 6.5 90 0.7 CALM 0 0 0 0 1019.9 1019.9 0.0
03/02:00am 7.7 6.9 6.4 91 0.6 CALM 0 0 0 0 1019.9 1019.9 0.0
03/01:30am 7.4 6.5 6.1 91 0.6 CALM 0 0 0 0 1020.0 1020.0 0.0
03/01:00am 7.7 6.8 5.9 88 0.8 CALM 0 0 0 0 1020.0 1020.0 0.0
03/12:30am 8.2 7.4 6.7 90 0.7 CALM 0 0 0 0 1020.2 1020.2 0.0
03/12:00am 8.5 7.8 6.8 89 0.8 CALM 0 0 0 0 1020.3 1020.3 0.0
 
Date/Time
CST
Temp
°C
App
Temp
°C
Dew
Point
°C
Rel
Hum
%
Delta-T
°C
Wind Press
QNH
hPa
Press
MSL
hPa
Rain since
9am
mm
Dir  Spd
km/h
Gust
km/h
Spd
kts
Gust
kts
02/11:30pm 8.4 7.7 6.9 90 0.7 CALM 0 0 0 0 1020.5 1020.5 0.0
02/11:00pm 8.4 7.7 7.1 91 0.6 CALM 0 0 0 0 1020.7 1020.7 0.0
02/10:30pm 8.1 7.4 7.0 93 0.5 CALM 0 0 0 0 1020.8 1020.8 0.0
02/10:00pm 8.6 8.1 7.8 95 0.4 CALM 0 0 0 0 1020.6 1020.6 0.0
02/09:30pm 8.6 7.9 7.1 90 0.7 CALM 0 0 0 0 1020.7 1020.7 0.0
02/09:00pm 10.7 10.6 9.3 91 0.7 CALM 0 0 0 0 1020.7 1020.7 0.0

Latest Capital City Observations: Canberra | Sydney | Melbourne | Brisbane | Adelaide | Perth | Hobart | Darwin

Other formats

Comma delimited format used in spreadsheet applications
http://www.bom.gov.au/fwo/IDS60901/IDS60901.94672.axf

JavaScript Object Notation format (JSON) in row-major order
http://www.bom.gov.au/fwo/IDS60901/IDS60901.94672.json

Data quality

Most of these data are generated automatically and are frequently updated. Quality checks on data are not normally performed. It is possible for incorrect values to appear. Refer to information at About Latest Weather Observations and please check the disclaimer before using these data.